sensor_id;sensor_type;location;lat;lon;timestamp;pressure;altitude;pressure_sealevel;temperature;humidity
79729;BME280;69218;52.132;5.418;2023-06-10T00:01:38;101613.22;;;20.09;51.18
79729;BME280;69218;52.132;5.418;2023-06-10T00:04:05;101610.22;;;20.03;51.25
79729;BME280;69218;52.132;5.418;2023-06-10T00:06:31;101607.88;;;20.00;51.37
79729;BME280;69218;52.132;5.418;2023-06-10T00:09:04;101613.53;;;19.97;51.70
79729;BME280;69218;52.132;5.418;2023-06-10T00:11:32;101617.38;;;19.95;51.20
79729;BME280;69218;52.132;5.418;2023-06-10T00:13:59;101613.38;;;19.91;51.50
79729;BME280;69218;52.132;5.418;2023-06-10T00:16:26;101610.88;;;19.89;51.07
79729;BME280;69218;52.132;5.418;2023-06-10T00:18:53;101612.84;;;19.87;51.27
79729;BME280;69218;52.132;5.418;2023-06-10T00:21:22;101612.34;;;19.84;51.19
79729;BME280;69218;52.132;5.418;2023-06-10T00:23:50;101616.34;;;19.80;51.30
79729;BME280;69218;52.132;5.418;2023-06-10T00:26:17;101621.00;;;19.78;51.20
79729;BME280;69218;52.132;5.418;2023-06-10T00:28:43;101618.50;;;19.76;50.28
79729;BME280;69218;52.132;5.418;2023-06-10T00:31:11;101618.50;;;19.76;50.23
79729;BME280;69218;52.132;5.418;2023-06-10T00:33:38;101617.00;;;19.73;49.93
79729;BME280;69218;52.132;5.418;2023-06-10T00:36:04;101623.31;;;19.72;50.06
79729;BME280;69218;52.132;5.418;2023-06-10T00:38:31;101628.13;;;19.69;49.83
79729;BME280;69218;52.132;5.418;2023-06-10T00:40:58;101623.97;;;19.66;49.89
79729;BME280;69218;52.132;5.418;2023-06-10T00:43:25;101626.13;;;19.63;49.58
79729;BME280;69218;52.132;5.418;2023-06-10T00:45:51;101627.13;;;19.62;49.49
79729;BME280;69218;52.132;5.418;2023-06-10T00:48:18;101622.78;;;19.61;49.22
79729;BME280;69218;52.132;5.418;2023-06-10T00:50:46;101629.25;;;19.58;48.86
79729;BME280;69218;52.132;5.418;2023-06-10T00:53:13;101620.75;;;19.55;49.16
79729;BME280;69218;52.132;5.418;2023-06-10T00:55:41;101625.41;;;19.53;49.04
79729;BME280;69218;52.132;5.418;2023-06-10T00:58:07;101621.38;;;19.48;49.25
79729;BME280;69218;52.132;5.418;2023-06-10T01:00:34;101621.72;;;19.45;49.08
79729;BME280;69218;52.132;5.418;2023-06-10T01:03:01;101620.03;;;19.44;48.89
79729;BME280;69218;52.132;5.418;2023-06-10T01:05:27;101626.34;;;19.43;48.84
79729;BME280;69218;52.132;5.418;2023-06-10T01:08:09;101625.69;;;19.41;48.95
79729;BME280;69218;52.132;5.418;2023-06-10T01:10:51;101622.19;;;19.41;48.39
79729;BME280;69218;52.132;5.418;2023-06-10T01:13:20;101625.16;;;19.38;48.66
79729;BME280;69218;52.132;5.418;2023-06-10T01:15:50;101627.16;;;19.36;48.90
79729;BME280;69218;52.132;5.418;2023-06-10T01:18:18;101629.31;;;19.32;48.82
79729;BME280;69218;52.132;5.418;2023-06-10T01:20:44;101629.63;;;19.29;49.22
79729;BME280;69218;52.132;5.418;2023-06-10T01:23:12;101633.44;;;19.27;48.92
79729;BME280;69218;52.132;5.418;2023-06-10T01:28:23;101632.41;;;19.19;49.12
79729;BME280;69218;52.132;5.418;2023-06-10T01:33:42;101636.34;;;19.15;49.13
79729;BME280;69218;52.132;5.418;2023-06-10T01:36:10;101636.53;;;19.14;49.25
79729;BME280;69218;52.132;5.418;2023-06-10T01:38:40;101635.84;;;19.12;49.37
79729;BME280;69218;52.132;5.418;2023-06-10T01:41:09;101632.66;;;19.08;49.95
79729;BME280;69218;52.132;5.418;2023-06-10T01:43:40;101633.84;;;19.06;49.69
79729;BME280;69218;52.132;5.418;2023-06-10T01:46:06;101638.63;;;19.02;49.85
79729;BME280;69218;52.132;5.418;2023-06-10T01:48:33;101635.28;;;19.00;50.31
79729;BME280;69218;52.132;5.418;2023-06-10T01:50:59;101638.28;;;18.97;50.36
79729;BME280;69218;52.132;5.418;2023-06-10T01:53:26;101632.44;;;18.93;50.95
79729;BME280;69218;52.132;5.418;2023-06-10T01:55:52;101633.59;;;18.91;50.56
79729;BME280;69218;52.132;5.418;2023-06-10T01:58:19;101634.88;;;18.87;51.02
79729;BME280;69218;52.132;5.418;2023-06-10T02:00:45;101630.56;;;18.86;50.85
79729;BME280;69218;52.132;5.418;2023-06-10T02:03:12;101634.38;;;18.83;51.18
79729;BME280;69218;52.132;5.418;2023-06-10T02:05:39;101637.31;;;18.80;51.25
79729;BME280;69218;52.132;5.418;2023-06-10T02:08:06;101641.31;;;18.76;51.64
79729;BME280;69218;52.132;5.418;2023-06-10T02:10:32;101638.09;;;18.73;51.61
79729;BME280;69218;52.132;5.418;2023-06-10T02:12:59;101639.44;;;18.69;52.14
79729;BME280;69218;52.132;5.418;2023-06-10T02:15:25;101642.22;;;18.67;51.89
79729;BME280;69218;52.132;5.418;2023-06-10T02:17:52;101634.53;;;18.64;52.27
79729;BME280;69218;52.132;5.418;2023-06-10T02:20:18;101637.50;;;18.61;52.40
79729;BME280;69218;52.132;5.418;2023-06-10T02:22:45;101638.81;;;18.57;52.39
79729;BME280;69218;52.132;5.418;2023-06-10T02:25:12;101641.78;;;18.54;52.97
79729;BME280;69218;52.132;5.418;2023-06-10T02:27:38;101646.38;;;18.52;53.00
79729;BME280;69218;52.132;5.418;2023-06-10T02:30:05;101648.38;;;18.50;53.00
79729;BME280;69218;52.132;5.418;2023-06-10T02:32:32;101653.84;;;18.48;53.70
79729;BME280;69218;52.132;5.418;2023-06-10T02:34:59;101644.66;;;18.43;54.00
79729;BME280;69218;52.132;5.418;2023-06-10T02:37:26;101659.22;;;18.38;54.20
79729;BME280;69218;52.132;5.418;2023-06-10T02:39:53;101658.72;;;18.35;53.96
79729;BME280;69218;52.132;5.418;2023-06-10T02:42:19;101651.91;;;18.32;54.66
79729;BME280;69218;52.132;5.418;2023-06-10T02:44:46;101656.50;;;18.30;54.09
79729;BME280;69218;52.132;5.418;2023-06-10T02:47:12;101647.88;;;18.28;54.07
79729;BME280;69218;52.132;5.418;2023-06-10T02:49:38;101655.16;;;18.26;54.76
79729;BME280;69218;52.132;5.418;2023-06-10T02:52:05;101654.59;;;18.23;54.65
79729;BME280;69218;52.132;5.418;2023-06-10T02:54:33;101657.41;;;18.21;54.37
79729;BME280;69218;52.132;5.418;2023-06-10T02:56:59;101658.56;;;18.19;54.49
79729;BME280;69218;52.132;5.418;2023-06-10T02:59:26;101657.88;;;18.17;54.08
79729;BME280;69218;52.132;5.418;2023-06-10T03:01:54;101648.25;;;18.16;54.79
79729;BME280;69218;52.132;5.418;2023-06-10T03:04:21;101655.53;;;18.14;54.97
79729;BME280;69218;52.132;5.418;2023-06-10T03:06:49;101658.47;;;18.10;55.16
79729;BME280;69218;52.132;5.418;2023-06-10T03:09:16;101658.78;;;18.07;55.67
79729;BME280;69218;52.132;5.418;2023-06-10T03:11:42;101656.13;;;18.07;54.80
79729;BME280;69218;52.132;5.418;2023-06-10T03:14:09;101663.53;;;18.04;55.75
79729;BME280;69218;52.132;5.418;2023-06-10T03:16:36;101657.56;;;18.02;55.84
79729;BME280;69218;52.132;5.418;2023-06-10T03:19:06;101662.34;;;17.98;55.98
79729;BME280;69218;52.132;5.418;2023-06-10T03:21:36;101654.50;;;17.97;55.99
79729;BME280;69218;52.132;5.418;2023-06-10T03:24:04;101659.31;;;17.93;56.15
79729;BME280;69218;52.132;5.418;2023-06-10T03:26:30;101670.59;;;17.95;56.50
79729;BME280;69218;52.132;5.418;2023-06-10T03:28:57;101659.31;;;17.93;55.95
79729;BME280;69218;52.132;5.418;2023-06-10T03:31:23;101665.44;;;17.94;55.93
79729;BME280;69218;52.132;5.418;2023-06-10T03:33:51;101666.44;;;17.93;56.88
79729;BME280;69218;52.132;5.418;2023-06-10T03:36:17;101664.06;;;17.90;56.89
79729;BME280;69218;52.132;5.418;2023-06-10T03:38:44;101659.75;;;17.89;56.48
79729;BME280;69218;52.132;5.418;2023-06-10T03:41:10;101669.38;;;17.90;56.37
79729;BME280;69218;52.132;5.418;2023-06-10T03:43:37;101671.06;;;17.91;56.82
79729;BME280;69218;52.132;5.418;2023-06-10T03:46:05;101672.03;;;17.90;56.48
79729;BME280;69218;52.132;5.418;2023-06-10T03:48:31;101673.00;;;17.89;57.35
79729;BME280;69218;52.132;5.418;2023-06-10T03:50:58;101674.81;;;17.88;56.54
79729;BME280;69218;52.132;5.418;2023-06-10T03:53:24;101674.66;;;17.90;57.11
79729;BME280;69218;52.132;5.418;2023-06-10T03:55:51;101672.31;;;17.87;57.13
79729;BME280;69218;52.132;5.418;2023-06-10T03:58:17;101676.66;;;17.88;57.04
79729;BME280;69218;52.132;5.418;2023-06-10T04:00:44;101678.47;;;17.87;57.55
79729;BME280;69218;52.132;5.418;2023-06-10T04:03:11;101671.34;;;17.88;57.56
79729;BME280;69218;52.132;5.418;2023-06-10T04:05:41;101681.13;;;17.87;57.07
79729;BME280;69218;52.132;5.418;2023-06-10T04:08:08;101679.97;;;17.90;57.56
79729;BME280;69218;52.132;5.418;2023-06-10T04:10:35;101679.03;;;17.91;57.79
79729;BME280;69218;52.132;5.418;2023-06-10T04:13:02;101680.69;;;17.92;57.46
79729;BME280;69218;52.132;5.418;2023-06-10T04:15:29;101679.03;;;17.91;57.81
79729;BME280;69218;52.132;5.418;2023-06-10T04:17:59;101686.66;;;17.94;57.98
79729;BME280;69218;52.132;5.418;2023-06-10T04:20:27;101683.84;;;17.95;57.43
79729;BME280;69218;52.132;5.418;2023-06-10T04:22:53;101686.34;;;17.97;57.99
79729;BME280;69218;52.132;5.418;2023-06-10T04:25:20;101681.03;;;17.97;57.85
79729;BME280;69218;52.132;5.418;2023-06-10T04:27:46;101687.06;;;17.99;58.18
79729;BME280;69218;52.132;5.418;2023-06-10T04:30:13;101697.53;;;18.00;58.48
79729;BME280;69218;52.132;5.418;2023-06-10T04:32:40;101697.19;;;18.03;58.92
79729;BME280;69218;52.132;5.418;2023-06-10T04:35:07;101702.38;;;18.05;57.55
79729;BME280;69218;52.132;5.418;2023-06-10T04:37:34;101696.78;;;18.08;58.56
79729;BME280;69218;52.132;5.418;2023-06-10T04:40:00;101697.59;;;18.08;59.09
79729;BME280;69218;52.132;5.418;2023-06-10T04:42:27;101698.97;;;18.13;58.16
79729;BME280;69218;52.132;5.418;2023-06-10T04:44:55;101704.81;;;18.16;57.68
79729;BME280;69218;52.132;5.418;2023-06-10T04:47:22;101699.50;;;18.16;57.99
79729;BME280;69218;52.132;5.418;2023-06-10T04:49:48;101698.38;;;18.19;58.82
79729;BME280;69218;52.132;5.418;2023-06-10T04:52:15;101704.22;;;18.22;58.99
79729;BME280;69218;52.132;5.418;2023-06-10T04:54:44;101716.22;;;18.26;57.78
79729;BME280;69218;52.132;5.418;2023-06-10T04:57:11;101709.75;;;18.29;58.12
79729;BME280;69218;52.132;5.418;2023-06-10T04:59:37;101705.13;;;18.31;58.08
79729;BME280;69218;52.132;5.418;2023-06-10T05:02:04;101709.16;;;18.35;58.74
79729;BME280;69218;52.132;5.418;2023-06-10T05:04:31;101710.66;;;18.37;58.33
79729;BME280;69218;52.132;5.418;2023-06-10T05:06:58;101713.84;;;18.41;58.10
79729;BME280;69218;52.132;5.418;2023-06-10T05:09:25;101718.69;;;18.46;58.49
79729;BME280;69218;52.132;5.418;2023-06-10T05:11:52;101714.75;;;18.50;58.08
79729;BME280;69218;52.132;5.418;2023-06-10T05:14:20;101703.97;;;18.51;58.79
79729;BME280;69218;52.132;5.418;2023-06-10T05:16:47;101701.16;;;18.53;57.98
79729;BME280;69218;52.132;5.418;2023-06-10T05:19:14;101704.38;;;18.56;58.28
79729;BME280;69218;52.132;5.418;2023-06-10T05:21:42;101712.72;;;18.61;58.28
79729;BME280;69218;52.132;5.418;2023-06-10T05:24:09;101705.97;;;18.67;58.52
79729;BME280;69218;52.132;5.418;2023-06-10T05:26:35;101709.28;;;18.87;57.46
79729;BME280;69218;52.132;5.418;2023-06-10T05:29:05;101711.75;;;19.06;57.42
79729;BME280;69218;52.132;5.418;2023-06-10T05:31:31;101699.22;;;19.25;57.20
79729;BME280;69218;52.132;5.418;2023-06-10T05:33:58;101708.25;;;19.32;56.30
79729;BME280;69218;52.132;5.418;2023-06-10T05:36:24;101706.63;;;19.39;56.81
79729;BME280;69218;52.132;5.418;2023-06-10T05:38:54;101709.47;;;19.45;56.97
79729;BME280;69218;52.132;5.418;2023-06-10T05:41:20;101717.16;;;19.57;56.77
79729;BME280;69218;52.132;5.418;2023-06-10T05:43:48;101717.22;;;19.65;56.47
79729;BME280;69218;52.132;5.418;2023-06-10T05:46:15;101713.25;;;19.69;56.83
79729;BME280;69218;52.132;5.418;2023-06-10T05:48:41;101716.41;;;19.72;56.21
79729;BME280;69218;52.132;5.418;2023-06-10T05:51:08;101719.28;;;19.79;56.34
79729;BME280;69218;52.132;5.418;2023-06-10T05:53:34;101721.47;;;19.84;55.54
79729;BME280;69218;52.132;5.418;2023-06-10T05:56:01;101721.81;;;19.89;56.33
79729;BME280;69218;52.132;5.418;2023-06-10T05:58:27;101724.81;;;19.94;56.03
79729;BME280;69218;52.132;5.418;2023-06-10T06:00:54;101726.00;;;19.99;55.67
79729;BME280;69218;52.132;5.418;2023-06-10T06:03:20;101713.88;;;20.05;55.44
79729;BME280;69218;52.132;5.418;2023-06-10T06:05:47;101714.22;;;20.10;54.74
79729;BME280;69218;52.132;5.418;2023-06-10T06:08:13;101710.09;;;20.16;55.47
79729;BME280;69218;52.132;5.418;2023-06-10T06:10:44;101710.09;;;20.24;55.92
79729;BME280;69218;52.132;5.418;2023-06-10T06:13:11;101711.09;;;20.31;55.17
79729;BME280;69218;52.132;5.418;2023-06-10T06:15:37;101707.44;;;20.40;54.77
79729;BME280;69218;52.132;5.418;2023-06-10T06:18:04;101711.94;;;20.40;54.39
79729;BME280;69218;52.132;5.418;2023-06-10T06:20:31;101723.16;;;20.51;54.28
79729;BME280;69218;52.132;5.418;2023-06-10T06:22:57;101719.66;;;20.59;54.02
79729;BME280;69218;52.132;5.418;2023-06-10T06:25:24;101710.66;;;20.68;53.13
79729;BME280;69218;52.132;5.418;2023-06-10T06:27:50;101710.63;;;20.76;53.61
79729;BME280;69218;52.132;5.418;2023-06-10T06:30:16;101713.81;;;20.80;53.28
79729;BME280;69218;52.132;5.418;2023-06-10T06:32:43;101706.16;;;20.93;53.38
79729;BME280;69218;52.132;5.418;2023-06-10T06:35:10;101706.28;;;21.08;51.75
79729;BME280;69218;52.132;5.418;2023-06-10T06:37:37;101709.22;;;21.21;51.79
79729;BME280;69218;52.132;5.418;2023-06-10T06:40:03;101705.59;;;21.30;51.39
79729;BME280;69218;52.132;5.418;2023-06-10T06:42:30;101710.91;;;21.30;51.69
79729;BME280;69218;52.132;5.418;2023-06-10T06:44:57;101704.03;;;21.44;51.88
79729;BME280;69218;52.132;5.418;2023-06-10T06:47:23;101710.31;;;21.59;51.38
79729;BME280;69218;52.132;5.418;2023-06-10T06:49:50;101704.34;;;21.57;50.56
79729;BME280;69218;52.132;5.418;2023-06-10T06:52:16;101715.25;;;21.71;50.84
79729;BME280;69218;52.132;5.418;2023-06-10T06:54:45;101703.50;;;21.88;50.84
79729;BME280;69218;52.132;5.418;2023-06-10T06:57:12;101707.91;;;22.04;49.98
79729;BME280;69218;52.132;5.418;2023-06-10T06:59:38;101707.25;;;22.10;49.21
79729;BME280;69218;52.132;5.418;2023-06-10T07:02:05;101710.09;;;22.08;48.63
79729;BME280;69218;52.132;5.418;2023-06-10T07:04:32;101716.72;;;22.12;49.35
79729;BME280;69218;52.132;5.418;2023-06-10T07:06:58;101715.50;;;22.23;48.79
79729;BME280;69218;52.132;5.418;2023-06-10T07:09:25;101711.44;;;22.35;48.87
79729;BME280;69218;52.132;5.418;2023-06-10T07:11:51;101716.22;;;22.40;48.20
79729;BME280;69218;52.132;5.418;2023-06-10T07:14:18;101716.25;;;22.55;48.14
79729;BME280;69218;52.132;5.418;2023-06-10T07:16:44;101722.84;;;22.67;48.16
79729;BME280;69218;52.132;5.418;2023-06-10T07:19:12;101715.19;;;22.87;47.75
79729;BME280;69218;52.132;5.418;2023-06-10T07:21:38;101718.91;;;23.00;46.83
79729;BME280;69218;52.132;5.418;2023-06-10T07:24:05;101724.38;;;23.07;46.20
79729;BME280;69218;52.132;5.418;2023-06-10T07:26:32;101720.38;;;23.18;47.09
79729;BME280;69218;52.132;5.418;2023-06-10T07:28:58;101718.00;;;23.23;46.43
79729;BME280;69218;52.132;5.418;2023-06-10T07:31:25;101714.22;;;23.32;46.90
79729;BME280;69218;52.132;5.418;2023-06-10T07:33:51;101718.56;;;23.48;46.22
79729;BME280;69218;52.132;5.418;2023-06-10T07:36:18;101718.28;;;23.57;46.16
79729;BME280;69218;52.132;5.418;2023-06-10T07:38:44;101709.69;;;23.77;45.45
79729;BME280;69218;52.132;5.418;2023-06-10T07:41:11;101713.53;;;23.89;45.57
79729;BME280;69218;52.132;5.418;2023-06-10T07:43:37;101714.28;;;23.98;44.01
79729;BME280;69218;52.132;5.418;2023-06-10T07:46:04;101717.94;;;24.11;44.91
79729;BME280;69218;52.132;5.418;2023-06-10T07:48:31;101722.53;;;24.18;44.44
79729;BME280;69218;52.132;5.418;2023-06-10T07:50:58;101718.50;;;24.28;44.27
79729;BME280;69218;52.132;5.418;2023-06-10T07:53:25;101728.56;;;24.41;43.43
79729;BME280;69218;52.132;5.418;2023-06-10T07:55:51;101720.44;;;24.56;43.40
79729;BME280;69218;52.132;5.418;2023-06-10T07:58:18;101729.56;;;24.61;42.64
79729;BME280;69218;52.132;5.418;2023-06-10T08:00:44;101734.69;;;24.56;42.58
79729;BME280;69218;52.132;5.418;2023-06-10T08:03:10;101737.41;;;24.63;42.91
79729;BME280;69218;52.132;5.418;2023-06-10T08:05:39;101725.97;;;24.76;42.65
79729;BME280;69218;52.132;5.418;2023-06-10T08:08:05;101725.88;;;24.90;42.06
79729;BME280;69218;52.132;5.418;2023-06-10T08:10:32;101724.50;;;25.01;41.72
79729;BME280;69218;52.132;5.418;2023-06-10T08:12:59;101732.47;;;25.09;42.00
79729;BME280;69218;52.132;5.418;2023-06-10T08:15:25;101724.25;;;25.17;41.55
79729;BME280;69218;52.132;5.418;2023-06-10T08:17:52;101723.50;;;25.30;42.48
79729;BME280;69218;52.132;5.418;2023-06-10T08:20:18;101727.66;;;25.33;40.87
79729;BME280;69218;52.132;5.418;2023-06-10T08:22:45;101721.00;;;25.29;42.19
79729;BME280;69218;52.132;5.418;2023-06-10T08:25:11;101723.19;;;25.46;43.35
79729;BME280;69218;52.132;5.418;2023-06-10T08:27:38;101724.09;;;25.67;41.44
79729;BME280;69218;52.132;5.418;2023-06-10T08:30:05;101717.56;;;25.83;40.86
79729;BME280;69218;52.132;5.418;2023-06-10T08:32:32;101721.38;;;26.01;40.69
79729;BME280;69218;52.132;5.418;2023-06-10T08:34:58;101717.00;;;26.07;40.21
79729;BME280;69218;52.132;5.418;2023-06-10T08:37:25;101729.47;;;26.15;39.96
79729;BME280;69218;52.132;5.418;2023-06-10T08:39:51;101716.84;;;26.28;39.65
79729;BME280;69218;52.132;5.418;2023-06-10T08:42:23;101722.28;;;26.48;39.64
79729;BME280;69218;52.132;5.418;2023-06-10T08:44:54;101718.38;;;26.44;38.86
79729;BME280;69218;52.132;5.418;2023-06-10T08:47:29;101717.13;;;26.60;40.33
79729;BME280;69218;52.132;5.418;2023-06-10T08:50:03;101719.38;;;26.83;38.69
79729;BME280;69218;52.132;5.418;2023-06-10T08:52:37;101717.94;;;26.80;37.29
79729;BME280;69218;52.132;5.418;2023-06-10T08:55:13;101711.53;;;26.95;38.33
79729;BME280;69218;52.132;5.418;2023-06-10T08:57:41;101711.31;;;27.16;38.70
79729;BME280;69218;52.132;5.418;2023-06-10T09:00:09;101721.84;;;27.18;37.55
79729;BME280;69218;52.132;5.418;2023-06-10T09:02:37;101718.97;;;27.06;37.06
79729;BME280;69218;52.132;5.418;2023-06-10T09:05:05;101720.44;;;27.08;38.41
79729;BME280;69218;52.132;5.418;2023-06-10T09:07:31;101712.53;;;27.20;36.79
79729;BME280;69218;52.132;5.418;2023-06-10T09:10:00;101709.38;;;27.43;36.98
79729;BME280;69218;52.132;5.418;2023-06-10T09:12:29;101720.72;;;27.58;36.09
79729;BME280;69218;52.132;5.418;2023-06-10T09:14:56;101718.34;;;27.82;35.82
79729;BME280;69218;52.132;5.418;2023-06-10T09:17:22;101718.09;;;27.90;35.20
79729;BME280;69218;52.132;5.418;2023-06-10T09:19:50;101715.50;;;28.08;35.72
79729;BME280;69218;52.132;5.418;2023-06-10T09:22:17;101718.53;;;28.18;35.08
79729;BME280;69218;52.132;5.418;2023-06-10T09:24:46;101717.53;;;28.19;35.65
79729;BME280;69218;52.132;5.418;2023-06-10T09:27:14;101717.53;;;28.19;33.88
79729;BME280;69218;52.132;5.418;2023-06-10T09:29:51;101706.41;;;28.41;34.14
79729;BME280;69218;52.132;5.418;2023-06-10T09:32:19;101714.28;;;28.42;34.22
79729;BME280;69218;52.132;5.418;2023-06-10T09:34:46;101711.81;;;28.41;33.37
79729;BME280;69218;52.132;5.418;2023-06-10T09:37:19;101708.88;;;28.42;34.57
79729;BME280;69218;52.132;5.418;2023-06-10T09:40:01;101719.88;;;28.66;35.01
79729;BME280;69218;52.132;5.418;2023-06-10T09:42:32;101710.84;;;28.79;33.48
79729;BME280;69218;52.132;5.418;2023-06-10T09:44:58;101706.72;;;29.01;31.87
79729;BME280;69218;52.132;5.418;2023-06-10T09:47:25;101708.63;;;29.19;32.75
79729;BME280;69218;52.132;5.418;2023-06-10T09:49:51;101703.34;;;29.24;33.43
79729;BME280;69218;52.132;5.418;2023-06-10T09:52:25;101714.25;;;29.36;31.65
79729;BME280;69218;52.132;5.418;2023-06-10T09:54:53;101701.13;;;29.39;32.20
79729;BME280;69218;52.132;5.418;2023-06-10T09:57:21;101712.28;;;29.43;30.59
79729;BME280;69218;52.132;5.418;2023-06-10T09:59:48;101708.88;;;29.54;32.06
79729;BME280;69218;52.132;5.418;2023-06-10T10:02:18;101707.97;;;29.60;30.46
79729;BME280;69218;52.132;5.418;2023-06-10T10:04:45;101707.47;;;29.81;32.12
79729;BME280;69218;52.132;5.418;2023-06-10T10:07:12;101706.69;;;29.93;29.05
79729;BME280;69218;52.132;5.418;2023-06-10T10:09:40;101714.38;;;30.07;28.82
79729;BME280;69218;52.132;5.418;2023-06-10T10:12:15;101706.97;;;30.03;29.69
79729;BME280;69218;52.132;5.418;2023-06-10T10:14:46;101699.94;;;30.14;29.82
79729;BME280;69218;52.132;5.418;2023-06-10T10:17:15;101692.97;;;30.06;28.24
79729;BME280;69218;52.132;5.418;2023-06-10T10:19:49;101693.97;;;29.93;29.65
79729;BME280;69218;52.132;5.418;2023-06-10T10:22:26;101694.09;;;30.17;28.86
79729;BME280;69218;52.132;5.418;2023-06-10T10:24:56;101694.38;;;30.39;29.67
79729;BME280;69218;52.132;5.418;2023-06-10T10:27:28;101692.38;;;30.57;29.22
79729;BME280;69218;52.132;5.418;2023-06-10T10:29:58;101695.31;;;30.56;26.95
79729;BME280;69218;52.132;5.418;2023-06-10T10:32:26;101685.78;;;30.65;27.40
79729;BME280;69218;52.132;5.418;2023-06-10T10:35:12;101693.31;;;30.63;26.39
79729;BME280;69218;52.132;5.418;2023-06-10T10:37:42;101684.72;;;30.43;26.15
79729;BME280;69218;52.132;5.418;2023-06-10T10:40:10;101687.91;;;30.40;27.04
79729;BME280;69218;52.132;5.418;2023-06-10T10:42:38;101675.06;;;30.58;27.26
79729;BME280;69218;52.132;5.418;2023-06-10T10:45:06;101680.41;;;30.77;26.36
79729;BME280;69218;52.132;5.418;2023-06-10T10:47:35;101684.63;;;30.84;25.67
79729;BME280;69218;52.132;5.418;2023-06-10T10:50:13;101677.94;;;30.75;25.58
79729;BME280;69218;52.132;5.418;2023-06-10T10:53:06;101676.97;;;30.93;25.65
79729;BME280;69218;52.132;5.418;2023-06-10T10:55:33;101672.63;;;31.04;24.30
79729;BME280;69218;52.132;5.418;2023-06-10T10:58:03;101675.44;;;31.09;25.50
79729;BME280;69218;52.132;5.418;2023-06-10T11:00:35;101665.53;;;31.26;23.47
79729;BME280;69218;52.132;5.418;2023-06-10T11:05:42;101674.22;;;31.68;26.47
79729;BME280;69218;52.132;5.418;2023-06-10T11:08:45;101670.28;;;31.76;24.36
79729;BME280;69218;52.132;5.418;2023-06-10T11:11:24;101661.47;;;31.81;24.50
79729;BME280;69218;52.132;5.418;2023-06-10T11:13:59;101668.38;;;31.88;24.28
79729;BME280;69218;52.132;5.418;2023-06-10T11:16:40;101660.56;;;31.92;24.48
79729;BME280;69218;52.132;5.418;2023-06-10T11:19:08;101661.72;;;31.96;25.46
79729;BME280;69218;52.132;5.418;2023-06-10T11:21:57;101658.63;;;32.21;24.53
79729;BME280;69218;52.132;5.418;2023-06-10T11:24:24;101660.03;;;32.23;23.38
79729;BME280;69218;52.132;5.418;2023-06-10T11:26:52;101651.19;;;31.83;23.21
79729;BME280;69218;52.132;5.418;2023-06-10T11:29:19;101654.25;;;31.86;23.87
79729;BME280;69218;52.132;5.418;2023-06-10T11:31:50;101647.09;;;31.80;25.07
79729;BME280;69218;52.132;5.418;2023-06-10T11:34:22;101649.09;;;32.02;25.10
79729;BME280;69218;52.132;5.418;2023-06-10T11:36:53;101653.84;;;32.11;23.71
79729;BME280;69218;52.132;5.418;2023-06-10T11:39:21;101658.13;;;32.24;24.76
79729;BME280;69218;52.132;5.418;2023-06-10T11:41:47;101653.03;;;32.11;21.91
79729;BME280;69218;52.132;5.418;2023-06-10T11:44:14;101645.94;;;31.93;22.92
79729;BME280;69218;52.132;5.418;2023-06-10T11:46:45;101651.13;;;32.11;23.13
79729;BME280;69218;52.132;5.418;2023-06-10T11:49:14;101648.09;;;32.41;22.75
79729;BME280;69218;52.132;5.418;2023-06-10T11:51:41;101643.50;;;32.59;24.28
79729;BME280;69218;52.132;5.418;2023-06-10T11:54:15;101638.28;;;32.74;25.92
79729;BME280;69218;52.132;5.418;2023-06-10T11:56:42;101625.03;;;32.77;22.33
79729;BME280;69218;52.132;5.418;2023-06-10T11:59:09;101635.16;;;32.65;23.63
79729;BME280;69218;52.132;5.418;2023-06-10T12:01:37;101635.16;;;32.65;22.48
79729;BME280;69218;52.132;5.418;2023-06-10T12:04:11;101624.78;;;32.62;24.37
79729;BME280;69218;52.132;5.418;2023-06-10T12:06:53;101629.28;;;32.90;23.90
79729;BME280;69218;52.132;5.418;2023-06-10T12:09:27;101630.25;;;33.01;22.31
79729;BME280;69218;52.132;5.418;2023-06-10T12:11:59;101627.44;;;32.96;21.91
79729;BME280;69218;52.132;5.418;2023-06-10T12:17:21;101623.22;;;32.66;21.41
79729;BME280;69218;52.132;5.418;2023-06-10T12:19:50;101616.59;;;32.57;22.15
79729;BME280;69218;52.132;5.418;2023-06-10T12:22:16;101617.59;;;32.51;21.13
79729;BME280;69218;52.132;5.418;2023-06-10T12:25:05;101609.00;;;32.59;21.90
79729;BME280;69218;52.132;5.418;2023-06-10T12:27:34;101614.34;;;32.54;22.37
79729;BME280;69218;52.132;5.418;2023-06-10T12:30:02;101611.78;;;32.42;21.68
79729;BME280;69218;52.132;5.418;2023-06-10T12:32:42;101603.03;;;32.57;22.76
79729;BME280;69218;52.132;5.418;2023-06-10T12:35:10;101608.66;;;32.72;22.03
79729;BME280;69218;52.132;5.418;2023-06-10T12:37:39;101607.31;;;32.75;23.20
79729;BME280;69218;52.132;5.418;2023-06-10T12:40:09;101610.69;;;33.04;24.96
79729;BME280;69218;52.132;5.418;2023-06-10T12:42:37;101613.91;;;33.23;22.87
79729;BME280;69218;52.132;5.418;2023-06-10T12:45:05;101612.00;;;33.45;23.48
79729;BME280;69218;52.132;5.418;2023-06-10T12:47:35;101614.31;;;33.58;20.99
79729;BME280;69218;52.132;5.418;2023-06-10T12:50:02;101610.38;;;33.44;21.85
79729;BME280;69218;52.132;5.418;2023-06-10T12:52:29;101607.72;;;33.49;22.92
79729;BME280;69218;52.132;5.418;2023-06-10T12:54:56;101606.13;;;33.31;22.54
79729;BME280;69218;52.132;5.418;2023-06-10T12:57:22;101606.91;;;33.49;20.47
79729;BME280;69218;52.132;5.418;2023-06-10T12:59:49;101603.09;;;33.77;22.65
79729;BME280;69218;52.132;5.418;2023-06-10T13:02:19;101608.97;;;33.69;23.33
79729;BME280;69218;52.132;5.418;2023-06-10T13:04:47;101612.22;;;33.66;22.89
79729;BME280;69218;52.132;5.418;2023-06-10T13:07:14;101609.38;;;33.82;21.69